Time;durP1;ratioP1;P1;durP2;ratioP2;P2;SDS_P1;SDS_P2;PMS_P1;PMS_P2;Temp;Humidity;BMP_temperature;BMP_pressure;BME280_temperature;BME280_humidity;BME280_pressure;Samples;Min_cycle;Max_cycle;Signal;HPM_P1;HPM_P2
2022/09/13 00:01:17;;;;;;;50.67;24.00;;;;;;;17.15;100.00;100675.53;5030781;28;20064;-75
2022/09/13 00:03:43;;;;;;;54.45;26.30;;;;;;;17.06;100.00;100684.84;5020950;28;20030;-75
2022/09/13 00:06:15;;;;;;;52.90;26.65;;;;;;;17.00;100.00;100683.59;5002774;28;20035;-75
2022/09/13 00:08:45;;;;;;;55.45;27.83;;;;;;;17.08;100.00;100671.69;5014409;28;20033;-75
2022/09/13 00:11:16;;;;;;;54.95;28.17;;;;;;;17.22;100.00;100671.03;5036265;28;20041;-75
2022/09/13 00:13:49;;;;;;;54.88;26.30;;;;;;;17.07;100.00;100675.50;5017477;28;20786;-75
2022/09/13 00:16:20;;;;;;;54.17;27.52;;;;;;;17.11;100.00;100659.44;5022176;28;20029;-75
2022/09/13 00:18:49;;;;;;;53.95;27.52;;;;;;;17.14;100.00;100661.88;5019565;28;20024;-76
2022/09/13 00:21:19;;;;;;;58.38;26.55;;;;;;;17.19;100.00;100659.44;5033038;28;20030;-75
2022/09/13 00:23:49;;;;;;;51.55;26.27;;;;;;;17.13;100.00;100662.88;4986899;28;20080;-75
2022/09/13 00:26:20;;;;;;;45.67;25.98;;;;;;;17.07;100.00;100659.78;5025325;28;20460;-75
2022/09/13 00:28:52;;;;;;;51.10;25.50;;;;;;;17.15;100.00;100658.94;5019988;28;20188;-75
2022/09/13 00:31:19;;;;;;;47.72;24.35;;;;;;;17.20;100.00;100662.06;5019975;28;20053;-75
2022/09/13 00:33:49;;;;;;;42.70;24.33;;;;;;;17.20;100.00;100659.28;5019280;28;20093;-75
2022/09/13 00:36:15;;;;;;;48.72;22.30;;;;;;;17.30;100.00;100655.47;5018838;28;20033;-75
2022/09/13 00:38:42;;;;;;;46.45;23.05;;;;;;;17.31;100.00;100665.53;5018073;28;20041;-75
2022/09/13 00:41:13;;;;;;;44.78;22.30;;;;;;;17.23;100.00;100653.41;5021566;28;20167;-75
2022/09/13 00:43:53;;;;;;;32.37;19.43;;;;;;;17.37;100.00;100651.88;5016435;28;20065;-75
2022/09/13 00:46:45;;;;;;;36.83;19.80;;;;;;;17.45;100.00;100642.72;5017475;28;20033;-75
2022/09/13 00:49:17;;;;;;;37.05;20.17;;;;;;;17.35;100.00;100642.88;5018107;28;20030;-75
2022/09/13 00:51:47;;;;;;;39.15;20.25;;;;;;;17.30;100.00;100636.09;5017635;28;20474;-75
2022/09/13 00:54:21;;;;;;;39.20;20.33;;;;;;;17.29;100.00;100646.31;5017149;28;20034;-76
2022/09/13 00:56:59;;;;;;;39.10;19.15;;;;;;;17.31;100.00;100635.09;5012321;28;20048;-75
2022/09/13 00:59:41;;;;;;;34.63;18.70;;;;;;;17.28;100.00;100639.03;5033448;28;20392;-75
2022/09/13 01:02:08;;;;;;;34.72;19.30;;;;;;;17.31;100.00;100630.41;5019642;28;20057;-75
2022/09/13 01:04:37;;;;;;;38.22;18.45;;;;;;;17.31;100.00;100641.47;5016304;28;20044;-75
2022/09/13 01:07:10;;;;;;;36.40;18.50;;;;;;;17.25;100.00;100642.19;5023915;28;20029;-75
2022/09/13 01:09:43;;;;;;;31.30;18.38;;;;;;;17.22;100.00;100636.97;5029753;28;20481;-75
2022/09/13 01:12:22;;;;;;;36.30;19.08;;;;;;;17.23;100.00;100634.03;5033356;28;20381;-75
2022/09/13 01:14:52;;;;;;;34.53;19.10;;;;;;;17.22;100.00;100636.97;5050881;28;20420;-76
2022/09/13 01:17:19;;;;;;;30.27;17.35;;;;;;;17.24;100.00;100632.13;5022284;28;20037;-75
2022/09/13 01:19:48;;;;;;;39.00;18.55;;;;;;;17.21;100.00;100622.25;5037928;28;20039;-75
2022/09/13 01:22:14;;;;;;;32.25;16.73;;;;;;;17.26;100.00;100636.44;5018463;28;20030;-75
2022/09/13 01:24:56;;;;;;;33.50;16.48;;;;;;;17.23;100.00;100624.84;5025815;28;20057;-75
2022/09/13 01:27:35;;;;;;;34.63;17.48;;;;;;;17.28;100.00;100619.66;5015905;28;20034;-75
2022/09/13 01:30:11;;;;;;;28.70;15.15;;;;;;;17.31;100.00;100624.00;5036899;28;20061;-74
2022/09/13 01:33:18;;;;;;;31.92;15.43;;;;;;;17.30;100.00;100620.38;5017394;28;20029;-75
2022/09/13 01:36:11;;;;;;;34.53;16.23;;;;;;;17.34;100.00;100620.91;5019471;28;20040;-75
2022/09/13 01:38:44;;;;;;;28.35;15.52;;;;;;;17.36;100.00;100619.69;5033563;28;20052;-75
2022/09/13 01:41:29;;;;;;;27.20;15.17;;;;;;;17.36;100.00;100614.16;5029293;28;20496;-75
2022/09/13 01:44:20;;;;;;;29.00;15.23;;;;;;;17.30;100.00;100614.84;5013716;28;20048;-75
2022/09/13 01:47:14;;;;;;;29.73;15.15;;;;;;;17.35;100.00;100606.00;5015857;28;20566;-76
2022/09/13 01:50:16;;;;;;;41.33;14.60;;;;;;;17.27;100.00;100610.50;5017495;28;20053;-76
2022/09/13 01:52:59;;;;;;;27.65;14.65;;;;;;;17.32;100.00;100614.69;5027720;28;20172;-76
2022/09/13 01:55:40;;;;;;;28.52;14.23;;;;;;;17.31;100.00;100616.56;5032487;28;20029;-75
2022/09/13 01:58:35;;;;;;;27.20;14.77;;;;;;;17.35;100.00;100617.97;5016093;28;20476;-75
2022/09/13 02:01:29;;;;;;;28.98;14.63;;;;;;;17.42;100.00;100615.38;5015861;28;20033;-75
2022/09/13 02:04:12;;;;;;;23.70;13.88;;;;;;;17.36;100.00;100624.34;5014672;28;20042;-75
2022/09/13 02:06:54;;;;;;;;;;;;;;;17.36;100.00;100621.59;5022441;28;20026;-75
2022/09/13 02:09:27;;;;;;;28.60;13.82;;;;;;;17.35;100.00;100623.50;5029071;28;20008;-76
2022/09/13 02:12:00;;;;;;;35.95;15.35;;;;;;;17.30;100.00;100622.28;5023061;28;20029;-75
2022/09/13 02:14:55;;;;;;;25.15;15.10;;;;;;;17.29;100.00;100623.31;5042612;28;20033;-75
2022/09/13 02:17:29;;;;;;;24.15;14.43;;;;;;;17.31;100.00;100618.47;5022383;28;20084;-75
2022/09/13 02:20:11;;;;;;;24.77;15.00;;;;;;;17.27;100.00;100617.97;5015197;28;20033;-75
2022/09/13 02:22:49;;;;;;;24.50;14.85;;;;;;;17.29;100.00;100612.25;5015282;28;20076;-75
2022/09/13 02:25:24;;;;;;;27.88;15.02;;;;;;;17.23;100.00;100611.03;5014209;28;20502;-75
2022/09/13 02:28:04;;;;;;;34.88;15.85;;;;;;;17.20;100.00;100616.91;5015320;28;20113;-75
2022/09/13 02:30:46;;;;;;;29.00;15.90;;;;;;;17.18;100.00;100624.50;5014399;28;20026;-75
2022/09/13 02:33:17;;;;;;;31.65;15.82;;;;;;;17.08;100.00;100622.75;5015123;28;20038;-77
2022/09/13 02:36:02;;;;;;;26.85;15.40;;;;;;;17.06;100.00;100618.44;5032148;28;20116;-75
2022/09/13 02:38:49;;;;;;;38.03;15.57;;;;;;;17.07;100.00;100615.50;5028427;28;20033;-75
2022/09/13 02:41:25;;;;;;;25.33;16.17;;;;;;;17.01;100.00;100615.31;5022240;28;20563;-75
2022/09/13 02:44:12;;;;;;;33.65;17.30;;;;;;;17.03;100.00;100622.41;5001422;28;20608;-75
2022/09/13 02:47:05;;;;;;;31.38;17.20;;;;;;;16.95;100.00;100624.28;5030302;28;20536;-74
2022/09/13 02:49:48;;;;;;;38.60;16.88;;;;;;;16.98;100.00;100618.44;5032683;28;20526;-75
2022/09/13 02:52:28;;;;;;;32.85;18.60;;;;;;;16.98;100.00;100623.97;5032086;28;20036;-75
2022/09/13 02:55:24;;;;;;;33.83;17.30;;;;;;;16.92;100.00;100621.84;5009576;28;20116;-75
2022/09/13 02:57:57;;;;;;;36.83;17.50;;;;;;;16.90;100.00;100630.31;5029489;28;20039;-75
2022/09/13 03:00:27;;;;;;;28.73;17.38;;;;;;;16.91;100.00;100618.25;5008079;28;20034;-75
2022/09/13 03:02:55;;;;;;;32.28;18.25;;;;;;;16.93;100.00;100624.47;5014379;28;20037;-74
2022/09/13 03:05:25;;;;;;;34.55;17.42;;;;;;;16.88;100.00;100622.19;5013534;28;20037;-75
2022/09/13 03:07:55;;;;;;;37.95;17.98;;;;;;;16.87;100.00;100626.00;5017015;28;20040;-75
2022/09/13 03:10:37;;;;;;;36.37;16.30;;;;;;;16.88;100.00;100627.72;5031739;28;20124;-75
2022/09/13 03:13:45;;;;;;;39.78;17.00;;;;;;;16.93;100.00;100623.59;5001946;28;20649;-75
2022/09/13 03:16:27;;;;;;;34.97;16.65;;;;;;;16.94;100.00;100622.53;5014679;28;20030;-75
2022/09/13 03:19:08;;;;;;;42.42;16.98;;;;;;;16.93;100.00;100615.31;5033699;28;20108;-75
2022/09/13 03:21:48;;;;;;;45.25;16.60;;;;;;;17.15;100.00;100619.31;5030864;28;20025;-75
2022/09/13 03:24:49;;;;;;;32.65;14.95;;;;;;;17.09;100.00;100630.03;5017892;28;20037;-75
2022/09/13 03:27:38;;;;;;;29.15;15.65;;;;;;;17.01;100.00;100626.38;5006338;28;20053;-76
2022/09/13 03:30:12;;;;;;;32.95;16.65;;;;;;;17.02;100.00;100625.34;5012755;28;20473;-76
2022/09/13 03:32:57;;;;;;;29.15;16.23;;;;;;;16.97;100.00;100613.91;5020876;28;20473;-76
2022/09/13 03:35:40;;;;;;;31.65;15.95;;;;;;;17.02;100.00;100605.97;5023838;28;20510;-76
2022/09/13 03:38:16;;;;;;;32.53;16.60;;;;;;;17.01;100.00;100612.56;5018395;28;20049;-76
2022/09/13 03:40:51;;;;;;;32.63;16.65;;;;;;;16.95;100.00;100611.31;5012337;28;20034;-75
2022/09/13 03:43:34;;;;;;;43.78;16.50;;;;;;;16.96;100.00;100603.91;5012377;28;21242;-76
2022/09/13 03:46:05;;;;;;;36.70;16.92;;;;;;;16.90;100.00;100605.44;5023400;28;20136;-76
2022/09/13 03:48:38;;;;;;;36.10;17.10;;;;;;;16.97;100.00;100600.09;5044099;28;20088;-76
2022/09/13 03:51:08;;;;;;;34.15;16.02;;;;;;;16.91;100.00;100590.59;5015514;28;20029;-76
2022/09/13 03:53:44;;;;;;;33.00;16.20;;;;;;;16.91;100.00;100607.19;5022551;28;20022;-76
2022/09/13 03:56:19;;;;;;;34.30;16.80;;;;;;;16.90;100.00;100605.44;5015000;28;20036;-76
2022/09/13 03:58:51;;;;;;;32.08;16.60;;;;;;;16.94;100.00;100608.72;5024238;28;20429;-75
2022/09/13 04:01:22;;;;;;;30.58;16.48;;;;;;;16.95;100.00;100610.47;5006409;28;20046;-76
2022/09/13 04:03:51;;;;;;;31.77;16.20;;;;;;;16.94;100.00;100600.41;5015152;28;20080;-76
2022/09/13 04:09:45;;;;;;;29.65;16.10;;;;;;;16.98;100.00;100604.59;5015407;28;20185;-75
2022/09/13 04:12:13;;;;;;;31.02;15.82;;;;;;;16.95;100.00;100602.16;5011906;28;20478;-77
2022/09/13 04:14:40;;;;;;;26.75;14.70;;;;;;;16.94;100.00;100611.47;5023259;28;20021;-77
2022/09/13 04:17:13;;;;;;;30.85;15.63;;;;;;;16.95;100.00;100603.03;5002191;28;20029;-77
2022/09/13 04:19:39;;;;;;;28.65;14.27;;;;;;;16.96;100.00;100612.22;5021645;28;20383;-77
2022/09/13 04:22:05;;;;;;;30.83;15.30;;;;;;;16.95;100.00;100614.09;5021857;28;20562;-76
2022/09/13 04:24:35;;;;;;;30.77;15.43;;;;;;;16.95;100.00;100618.75;4997165;28;20116;-76
2022/09/13 04:27:06;;;;;;;28.27;14.65;;;;;;;16.99;100.00;100621.03;5024016;28;20108;-76
2022/09/13 04:29:32;;;;;;;31.45;15.45;;;;;;;16.98;100.00;100624.81;5013033;28;20137;-76
2022/09/13 04:32:04;;;;;;;30.08;15.65;;;;;;;16.96;100.00;100613.06;5006903;28;20091;-76
2022/09/13 04:34:30;;;;;;;29.17;14.45;;;;;;;16.87;100.00;100620.47;4989883;28;20042;-77
2022/09/13 04:36:56;;;;;;;39.67;15.32;;;;;;;16.87;100.00;100622.34;4998494;28;20054;-75
2022/09/13 04:39:25;;;;;;;30.85;15.18;;;;;;;16.85;100.00;100621.66;5021205;28;20033;-76
2022/09/13 04:41:57;;;;;;;34.22;15.20;;;;;;;16.89;100.00;100636.91;5012351;28;20034;-75
2022/09/13 04:44:24;;;;;;;27.85;14.57;;;;;;;16.87;100.00;100642.59;5020650;28;20052;-75
2022/09/13 04:46:50;;;;;;;28.10;14.88;;;;;;;16.79;100.00;100648.06;5016999;28;20505;-75
2022/09/13 04:49:18;;;;;;;29.33;15.02;;;;;;;16.78;100.00;100653.78;5023527;28;20041;-76
2022/09/13 04:51:45;;;;;;;31.35;15.30;;;;;;;16.68;100.00;100646.47;4997843;28;20042;-75
2022/09/13 04:54:17;;;;;;;28.92;14.90;;;;;;;16.70;100.00;100641.63;4998705;28;20105;-76
2022/09/13 04:56:49;;;;;;;33.50;14.57;;;;;;;16.70;100.00;100651.84;5007387;28;20116;-75
2022/09/13 04:59:18;;;;;;;27.40;15.15;;;;;;;16.67;100.00;100644.72;5033491;28;20053;-76
2022/09/13 05:01:44;;;;;;;27.70;15.68;;;;;;;16.68;100.00;100642.84;5007801;28;20084;-76
2022/09/13 05:04:20;;;;;;;32.75;15.40;;;;;;;16.74;100.00;100642.16;5025151;28;20029;-75
2022/09/13 05:06:48;;;;;;;27.85;15.50;;;;;;;16.64;100.00;100645.09;5019352;28;20033;-75
2022/09/13 05:09:23;;;;;;;32.90;15.40;;;;;;;16.61;100.00;100645.41;5015415;28;20129;-76
2022/09/13 05:11:50;;;;;;;29.48;15.32;;;;;;;16.69;100.00;100650.97;5015545;28;20468;-75
2022/09/13 05:14:17;;;;;;;27.60;14.75;;;;;;;16.76;100.00;100650.28;5016288;28;20065;-76
2022/09/13 05:16:46;;;;;;;32.40;14.98;;;;;;;16.77;100.00;100647.34;5038766;28;20493;-75
2022/09/13 05:19:13;;;;;;;30.38;13.95;;;;;;;16.78;100.00;100649.09;5032295;28;20050;-76
2022/09/13 05:21:39;;;;;;;32.67;15.32;;;;;;;16.84;100.00;100644.78;5002064;28;20096;-76
2022/09/13 05:24:08;;;;;;;34.22;15.02;;;;;;;16.75;100.00;100640.28;5022443;28;20549;-76
2022/09/13 05:26:34;;;;;;;32.40;14.52;;;;;;;16.80;100.00;100640.63;4998606;28;20092;-76
2022/09/13 05:29:08;;;;;;;32.63;16.35;;;;;;;16.86;100.00;100642.78;5021679;28;20397;-76
2022/09/13 05:31:39;;;;;;;27.65;14.35;;;;;;;16.86;100.00;100648.31;4997841;28;20034;-76
2022/09/13 05:34:12;;;;;;;29.60;14.65;;;;;;;16.84;100.00;100647.53;5048735;28;20030;-76
2022/09/13 05:36:40;;;;;;;28.50;14.82;;;;;;;16.88;100.00;100651.75;5016349;28;20040;-76
2022/09/13 05:39:16;;;;;;;36.42;15.45;;;;;;;16.87;100.00;100650.91;5033337;28;20116;-76
2022/09/13 05:41:51;;;;;;;34.55;15.60;;;;;;;16.85;100.00;100650.19;5043337;28;20080;-76
2022/09/13 05:44:17;;;;;;;26.25;15.45;;;;;;;16.81;100.00;100657.06;5017301;28;20081;-76
2022/09/13 05:46:48;;;;;;;29.75;15.60;;;;;;;16.83;100.00;100659.66;5010483;28;20064;-76
2022/09/13 05:49:19;;;;;;;32.33;15.50;;;;;;;16.85;100.00;100654.84;5014550;28;20454;-76
2022/09/13 05:51:47;;;;;;;32.40;14.90;;;;;;;16.89;100.00;100662.66;5026479;28;20557;-76
2022/09/13 05:54:19;;;;;;;29.47;15.23;;;;;;;16.98;100.00;100663.53;4999094;28;20037;-76
2022/09/13 05:56:45;;;;;;;33.95;16.15;;;;;;;17.05;100.00;100666.50;5024707;28;20328;-76
2022/09/13 05:59:14;;;;;;;30.88;15.77;;;;;;;17.02;100.00;100666.81;5012971;28;20037;-76
2022/09/13 06:01:45;;;;;;;31.63;14.95;;;;;;;16.95;100.00;100655.56;5012133;28;20042;-76
2022/09/13 06:04:17;;;;;;;26.97;15.10;;;;;;;16.99;100.00;100645.06;5018148;28;20404;-76
2022/09/13 06:06:46;;;;;;;37.05;15.57;;;;;;;17.06;100.00;100658.03;5020047;28;20304;-76
2022/09/13 06:09:15;;;;;;;33.15;14.40;;;;;;;17.05;100.00;100652.66;5033853;28;20037;-76
2022/09/13 06:11:46;;;;;;;34.50;15.52;;;;;;;17.02;100.00;100659.41;5019165;28;20037;-76
2022/09/13 06:14:14;;;;;;;32.08;14.00;;;;;;;17.14;100.00;100664.63;4984001;28;20500;-76
2022/09/13 06:16:40;;;;;;;32.60;13.23;;;;;;;17.13;100.00;100663.75;5032482;28;20053;-77
2022/09/13 06:19:06;;;;;;;43.28;15.77;;;;;;;17.17;100.00;100656.84;5015487;28;20413;-76
2022/09/13 06:21:39;;;;;;;31.25;14.65;;;;;;;17.16;100.00;100654.25;5031441;28;20485;-76
2022/09/13 06:24:06;;;;;;;30.40;15.02;;;;;;;17.18;100.00;100657.72;5031111;28;20091;-76
2022/09/13 06:26:38;;;;;;;26.10;14.50;;;;;;;17.23;100.00;100655.28;5033680;28;20061;-76
2022/09/13 06:29:10;;;;;;;34.00;14.60;;;;;;;17.21;100.00;100652.69;5001975;28;20036;-76
2022/09/13 06:31:43;;;;;;;27.88;13.93;;;;;;;17.38;100.00;100652.72;5032969;28;20351;-76
2022/09/13 06:34:14;;;;;;;33.10;14.48;;;;;;;17.51;100.00;100646.69;5027109;28;20064;-75
2022/09/13 06:36:44;;;;;;;32.70;15.73;;;;;;;17.48;100.00;100644.25;5017923;28;20045;-76
2022/09/13 06:39:16;;;;;;;34.00;15.98;;;;;;;17.54;100.00;100649.97;5011678;28;20045;-76
2022/09/13 06:41:41;;;;;;;32.08;15.68;;;;;;;17.57;100.00;100643.22;5015250;28;20033;-77
2022/09/13 06:44:08;;;;;;;35.03;16.60;;;;;;;17.61;100.00;100651.03;5018345;28;20045;-76
2022/09/13 06:46:34;;;;;;;34.63;15.95;;;;;;;17.66;100.00;100644.97;5028438;28;20543;-75
2022/09/13 06:49:08;;;;;;;30.70;15.90;;;;;;;17.80;100.00;100651.72;5046543;28;20045;-74
2022/09/13 06:51:44;;;;;;;30.80;14.63;;;;;;;17.79;100.00;100642.53;5002965;28;20132;-74
2022/09/13 06:54:09;;;;;;;29.80;14.85;;;;;;;17.82;100.00;100646.84;4995931;28;20546;-74
2022/09/13 06:56:40;;;;;;;36.10;15.85;;;;;;;17.87;100.00;100654.66;5018426;28;20387;-74
2022/09/13 06:59:09;;;;;;;46.63;16.13;;;;;;;17.91;100.00;100653.31;5010227;28;20065;-74
2022/09/13 07:01:38;;;;;;;31.73;15.82;;;;;;;17.98;100.00;100649.63;5023611;28;20035;-74
2022/09/13 07:04:10;;;;;;;48.58;17.92;;;;;;;17.97;100.00;100647.94;5033584;28;20034;-74
2022/09/13 07:06:42;;;;;;;40.55;16.83;;;;;;;18.02;100.00;100649.28;5028685;28;20026;-75
2022/09/13 07:09:16;;;;;;;31.10;15.70;;;;;;;18.02;100.00;100661.25;5016988;28;20038;-77
2022/09/13 07:11:45;;;;;;;44.83;19.33;;;;;;;18.19;100.00;100662.94;5013333;28;20036;-75
2022/09/13 07:14:22;;;;;;;59.13;24.35;;;;;;;18.23;100.00;100657.03;5017009;28;20117;-74
2022/09/13 07:16:51;;;;;;;36.78;17.85;;;;;;;18.32;100.00;100658.78;5020397;28;20029;-75
2022/09/13 07:19:30;;;;;;;31.30;16.30;;;;;;;18.41;100.00;100648.50;5014729;28;20492;-75
2022/09/13 07:21:57;;;;;;;33.38;16.55;;;;;;;18.67;100.00;100657.41;5019033;28;20032;-75
2022/09/13 07:24:26;;;;;;;33.38;16.42;;;;;;;18.81;100.00;100661.38;5025169;28;20038;-75
2022/09/13 07:26:56;;;;;;;32.97;16.17;;;;;;;19.08;100.00;100665.56;5016969;28;20476;-75
2022/09/13 07:29:22;;;;;;;36.67;16.85;;;;;;;19.16;100.00;100656.34;4991784;28;20037;-74
2022/09/13 07:31:54;;;;;;;30.05;17.30;;;;;;;19.28;100.00;100673.44;5024545;28;20453;-74
2022/09/13 07:34:24;;;;;;;34.95;16.92;;;;;;;19.64;100.00;100668.19;5010149;28;20025;-75
2022/09/13 07:36:51;;;;;;;36.90;19.33;;;;;;;19.49;100.00;100675.56;5013870;28;20034;-75
2022/09/13 07:39:17;;;;;;;42.83;19.70;;;;;;;19.47;100.00;100669.34;5022876;28;20434;-75
2022/09/13 07:41:45;;;;;;;43.33;18.42;;;;;;;19.67;100.00;100678.03;5013506;28;20037;-74
2022/09/13 07:44:13;;;;;;;37.33;19.67;;;;;;;19.60;100.00;100677.91;5016007;28;20054;-74
2022/09/13 07:46:42;;;;;;;35.47;19.67;;;;;;;19.54;100.00;100677.78;5025374;28;20096;-74
2022/09/13 07:49:10;;;;;;;34.63;17.75;;;;;;;19.58;100.00;100685.56;5012120;28;20092;-74
2022/09/13 07:51:42;;;;;;;35.15;17.73;;;;;;;19.52;100.00;100675.19;5041550;28;20034;-74
2022/09/13 07:54:16;;;;;;;33.70;17.20;;;;;;;19.89;100.00;100690.22;5004484;28;20034;-74
2022/09/13 07:56:49;;;;;;;41.30;20.33;;;;;;;19.91;100.00;100678.94;5017752;28;20026;-76
2022/09/13 07:59:16;;;;;;;45.55;20.98;;;;;;;19.78;100.00;100685.97;5024673;28;20057;-75
2022/09/13 08:01:48;;;;;;;45.42;19.90;;;;;;;19.92;100.00;100681.53;5042543;28;20030;-76
2022/09/13 08:04:23;;;;;;;46.70;19.77;;;;;;;20.12;100.00;100687.41;5012045;28;20120;-75
2022/09/13 08:06:52;;;;;;;43.53;18.88;;;;;;;20.07;100.00;100689.00;5026657;28;20439;-75
2022/09/13 08:09:18;;;;;;;38.88;18.77;;;;;;;20.46;100.00;100693.50;5022096;28;20042;-79
2022/09/13 08:11:51;;;;;;;46.72;21.05;;;;;;;20.36;100.00;100688.22;5025872;28;20180;-79
2022/09/13 08:14:18;;;;;;;43.38;21.48;;;;;;;20.85;100.00;100684.03;5023994;28;20052;-79
2022/09/13 08:16:47;;;;;;;36.67;20.05;;;;;;;20.81;100.00;100679.88;5035953;28;20029;-78
2022/09/13 08:19:18;;;;;;;40.05;21.75;;;;;;;20.79;100.00;100685.69;5020792;28;20038;-79
2022/09/13 08:21:52;;;;;;;49.95;21.25;;;;;;;21.11;100.00;100686.28;5019712;28;20037;-79
2022/09/13 08:24:25;;;;;;;40.83;19.77;;;;;;;21.29;100.00;100692.28;5019302;28;20034;-79
2022/09/13 08:26:53;;;;;;;40.65;21.88;;;;;;;21.68;100.00;100695.75;5005123;28;20363;-79
2022/09/13 08:29:20;;;;;;;43.33;22.02;;;;;;;21.96;100.00;100697.75;5042641;28;20043;-78
2022/09/13 08:31:47;;;;;;;43.47;22.15;;;;;;;21.98;100.00;100696.47;5059387;28;20033;-78
2022/09/13 08:34:15;;;;;;;43.15;21.23;;;;;;;22.16;100.00;100692.34;5044773;28;20050;-78
2022/09/13 08:36:42;;;;;;;49.15;22.27;;;;;;;21.88;100.00;100706.25;5030136;28;20033;-78
2022/09/13 08:39:12;;;;;;;42.78;20.98;;;;;;;22.23;100.00;100697.97;5027790;28;20033;-77
2022/09/13 08:41:39;;;;;;;43.15;21.67;;;;;;;22.79;100.00;100702.66;5046616;28;20092;-80
2022/09/13 08:44:35;;;;;;;54.88;23.95;;;;;;;23.07;100.00;100697.94;5027934;28;20041;-80
2022/09/13 08:47:25;;;;;;;40.88;22.23;;;;;;;22.90;100.00;100702.94;5037805;28;20033;-79
2022/09/13 08:49:59;;;;;;;50.65;25.98;;;;;;;22.97;100.00;100702.13;5019822;28;20378;-79
2022/09/13 08:52:40;;;;;;;54.03;26.05;;;;;;;22.89;100.00;100705.94;5021338;28;20478;-79
2022/09/13 08:55:32;;;;;;;51.17;26.42;;;;;;;22.92;100.00;100709.22;5013089;28;20041;-80
2022/09/13 08:58:19;;;;;;;48.08;27.15;;;;;;;22.95;100.00;100710.72;5019854;28;20030;-79
2022/09/13 09:01:02;;;;;;;57.53;30.27;;;;;;;22.94;100.00;100701.47;5003540;28;20037;-79
2022/09/13 09:04:00;;;;;;;55.80;29.55;;;;;;;23.06;100.00;100703.69;5019694;28;20217;-79
2022/09/13 09:06:27;;;;;;;57.10;29.33;;;;;;;22.88;100.00;100696.72;5012080;28;20041;-79
2022/09/13 09:09:20;;;;;;;55.67;27.70;;;;;;;23.42;100.00;100685.81;5038149;28;20458;-79
2022/09/13 09:12:02;;;;;;;67.88;30.00;;;;;;;23.83;100.00;100690.44;5037914;28;20021;-79
2022/09/13 09:14:32;;;;;;;52.47;29.67;;;;;;;23.80;100.00;100691.69;5031128;28;20032;-78
2022/09/13 09:17:05;;;;;;;57.10;28.40;;;;;;;24.17;100.00;100685.69;5016243;28;20029;-79
2022/09/13 09:19:40;;;;;;;50.78;26.15;;;;;;;24.56;100.00;100682.06;5036978;28;20037;-80
2022/09/13 09:22:20;;;;;;;47.80;25.92;;;;;;;24.95;100.00;100680.19;5021008;28;20095;-79
2022/09/13 09:24:53;;;;;;;47.47;24.80;;;;;;;24.89;100.00;100677.41;5016359;28;20030;-78
2022/09/13 09:27:20;;;;;;;46.70;25.73;;;;;;;24.49;100.00;100683.94;5018114;28;20145;-78
2022/09/13 09:29:52;;;;;;;43.25;23.70;;;;;;;24.71;100.00;100681.78;5031629;28;20044;-80
2022/09/13 09:32:46;;;;;;;49.53;24.80;;;;;;;23.75;100.00;100688.66;5029680;28;20404;-79
2022/09/13 09:35:37;;;;;;;64.60;25.85;;;;;;;23.67;100.00;100686.91;5016359;28;20113;-79
2022/09/13 09:38:30;;;;;;;53.22;23.88;;;;;;;23.81;100.00;100681.38;5025779;28;20060;-79
2022/09/13 09:41:06;;;;;;;47.95;25.73;;;;;;;23.45;100.00;100677.84;5036107;28;20108;-77
2022/09/13 09:43:51;;;;;;;39.92;21.00;;;;;;;23.67;100.00;100680.47;5037890;28;20032;-76
2022/09/13 09:46:23;;;;;;;43.03;21.63;;;;;;;24.48;100.00;100675.75;5016058;28;20110;-76
2022/09/13 09:49:00;;;;;;;42.72;24.33;;;;;;;24.72;100.00;100679.84;5023045;28;20032;-78
2022/09/13 09:51:27;;;;;;;48.03;25.40;;;;;;;24.43;100.00;100678.38;5017047;28;20041;-76
2022/09/13 09:54:01;;;;;;;46.83;24.42;;;;;;;24.31;100.00;100680.97;5016255;28;20057;-78
2022/09/13 09:56:32;;;;;;;60.70;24.60;;;;;;;24.70;100.00;100674.47;5015620;28;20038;-77
2022/09/13 09:58:58;;;;;;;40.00;23.17;;;;;;;24.66;100.00;100684.41;5022478;28;20116;-77
2022/09/13 10:01:33;;;;;;;43.80;24.63;;;;;;;25.06;100.00;100675.00;5031409;28;20029;-76
2022/09/13 10:04:11;;;;;;;40.13;21.85;;;;;;;25.64;100.00;100676.88;5021924;28;20029;-76
2022/09/13 10:06:40;;;;;;;37.17;20.55;;;;;;;25.53;100.00;100672.84;5035545;28;20056;-75
2022/09/13 10:09:08;;;;;;;39.17;23.25;;;;;;;25.47;100.00;100680.22;5050991;28;20037;-75
2022/09/13 10:11:47;;;;;;;49.25;25.50;;;;;;;25.06;100.00;100677.81;5013844;28;20490;-77
2022/09/13 10:14:33;;;;;;;43.20;25.30;;;;;;;25.34;100.00;100677.47;5014089;28;20034;-75
2022/09/13 10:17:20;;;;;;;38.60;22.95;;;;;;;25.72;100.00;100670.13;5028061;28;20485;-75
2022/09/13 10:20:25;;;;;;;35.97;19.02;;;;;;;25.55;100.00;100665.06;5014764;28;20096;-76
2022/09/13 10:23:14;;;;;;;37.65;23.10;;;;;;;25.23;100.00;100667.78;5015403;28;20060;-75
2022/09/13 10:25:54;;;;;;;40.28;25.08;;;;;;;25.37;100.00;100674.22;5013447;28;20033;-74
2022/09/13 10:28:32;;;;;;;42.08;24.88;;;;;;;25.46;100.00;100664.47;5015073;28;20038;-76
2022/09/13 10:31:05;;;;;;;44.92;25.65;;;;;;;25.59;100.00;100671.09;5014915;28;20425;-76
2022/09/13 10:33:54;;;;;;;43.60;25.05;;;;;;;25.96;100.00;100680.56;5015632;28;20025;-75
2022/09/13 10:36:32;;;;;;;33.05;19.52;;;;;;;25.79;100.00;100674.63;5030024;28;20054;-75
2022/09/13 10:39:18;;;;;;;37.17;19.95;;;;;;;25.85;100.00;100678.44;5015122;28;20433;-75
2022/09/13 10:42:06;;;;;;;38.40;21.08;;;;;;;25.92;100.00;100676.44;5017917;28;20481;-75
2022/09/13 10:44:54;;;;;;;38.40;22.55;;;;;;;25.92;100.00;100667.19;5020715;28;20037;-76
2022/09/13 10:47:32;;;;;;;42.75;23.92;;;;;;;25.76;100.00;100666.66;5016232;28;20033;-75
2022/09/13 10:50:32;;;;;;;37.15;22.17;;;;;;;25.45;100.00;100665.56;5016910;28;20061;-76
2022/09/13 10:53:00;;;;;;;36.75;19.23;;;;;;;25.98;100.00;100663.50;5013419;28;20497;-75
2022/09/13 10:55:41;;;;;;;40.88;23.15;;;;;;;25.49;100.00;100658.41;4997621;28;20038;-76
2022/09/13 10:58:15;;;;;;;39.40;22.67;;;;;;;25.19;100.00;100665.69;5023893;28;20057;-75
2022/09/13 11:01:10;;;;;;;34.25;20.67;;;;;;;25.60;100.00;100659.63;5014654;28;20061;-76
2022/09/13 11:04:05;;;;;;;38.38;21.15;;;;;;;25.18;100.00;100652.75;5013075;28;20040;-76
2022/09/13 11:07:04;;;;;;;34.78;19.02;;;;;;;25.18;100.00;100658.34;5014639;28;20034;-76
2022/09/13 11:10:02;;;;;;;33.75;21.05;;;;;;;24.85;100.00;100650.94;5027016;28;20037;-75
2022/09/13 11:12:38;;;;;;;34.42;20.17;;;;;;;24.87;100.00;100645.97;5016749;28;20468;-75
2022/09/13 11:15:28;;;;;;;35.80;22.27;;;;;;;24.63;100.00;100645.63;5034097;28;20040;-76
2022/09/13 11:18:33;;;;;;;37.63;21.20;;;;;;;24.58;100.00;100639.84;5042222;28;20029;-76
2022/09/13 11:21:12;;;;;;;36.85;20.38;;;;;;;24.59;100.00;100624.75;5033184;28;20120;-76
2022/09/13 11:24:05;;;;;;;33.63;20.70;;;;;;;24.52;100.00;100629.47;5031668;28;20120;-74
2022/09/13 11:27:04;;;;;;;35.92;20.85;;;;;;;24.35;100.00;100629.06;5025129;28;20033;-74
2022/09/13 11:29:50;;;;;;;37.75;19.92;;;;;;;24.58;100.00;100625.84;5043131;28;20482;-74
2022/09/13 11:32:47;;;;;;;30.40;17.88;;;;;;;24.82;100.00;100631.78;5033017;28;20040;-75
2022/09/13 11:35:40;;;;;;;37.08;17.42;;;;;;;24.92;100.00;100630.25;5030759;28;20034;-75
2022/09/13 11:38:28;;;;;;;36.65;19.92;;;;;;;25.04;100.00;100632.31;5033901;28;20405;-75
2022/09/13 11:41:19;;;;;;;33.30;20.55;;;;;;;25.49;100.00;100624.75;5033823;28;20029;-75
2022/09/13 11:44:20;;;;;;;32.22;19.98;;;;;;;25.68;100.00;100620.09;5014849;28;20040;-76